Time;durP1;ratioP1;P1;durP2;ratioP2;P2;SDS_P1;SDS_P2;PMS_P1;PMS_P2;Temp;Humidity;BMP_temperature;BMP_pressure;BME280_temperature;BME280_humidity;BME280_pressure;Samples;Min_cycle;Max_cycle;Signal;HPM_P1;HPM_P2
2022/12/05 00:01:39;;;;;;;25.40;16.73;;;5.40;99.90;;;;;;5093269;28;20510;-72
2022/12/05 00:04:08;;;;;;;26.23;17.43;;;5.50;99.90;;;;;;5093235;28;20192;-71
2022/12/05 00:06:35;;;;;;;21.80;15.20;;;5.30;99.90;;;;;;5093589;28;20754;-72
2022/12/05 00:09:00;;;;;;;21.93;15.30;;;5.30;99.90;;;;;;5092108;28;20407;-71
2022/12/05 00:11:29;;;;;;;22.53;15.10;;;5.60;99.90;;;;;;5073057;28;20507;-72
2022/12/05 00:13:56;;;;;;;25.90;16.17;;;5.70;99.90;;;;;;5073840;28;20182;-71
2022/12/05 00:16:25;;;;;;;20.77;14.53;;;5.70;99.90;;;;;;5073289;28;20499;-72
2022/12/05 00:18:51;;;;;;;23.17;14.87;;;5.70;99.90;;;;;;5073398;28;20773;-72
2022/12/05 00:21:20;;;;;;;22.43;15.70;;;5.80;99.90;;;;;;5073392;28;20474;-72
2022/12/05 00:23:46;;;;;;;22.70;15.13;;;5.80;99.90;;;;;;5073727;28;20444;-72
2022/12/05 00:26:12;;;;;;;21.30;15.40;;;5.80;99.90;;;;;;5084473;22;20541;-74
2022/12/05 00:28:39;;;;;;;21.67;16.13;;;5.70;99.90;;;;;;5063003;28;20175;-73
2022/12/05 00:31:12;;;;;;;21.27;15.20;;;5.70;99.90;;;;;;5075631;28;20764;-73
2022/12/05 00:33:39;;;;;;;19.87;14.20;;;5.80;99.90;;;;;;5077071;28;20380;-75
2022/12/05 00:36:11;;;;;;;22.20;14.80;;;5.60;99.90;;;;;;5076695;28;20507;-74
2022/12/05 00:38:37;;;;;;;21.13;14.97;;;5.60;99.90;;;;;;5076194;28;20396;-74
2022/12/05 00:41:03;;;;;;;20.10;14.20;;;5.80;99.90;;;;;;5075911;28;20396;-73
2022/12/05 00:43:29;;;;;;;22.37;14.07;;;5.80;99.90;;;;;;5075713;28;20186;-74
2022/12/05 00:45:55;;;;;;;25.37;16.20;;;5.70;99.90;;;;;;5075958;28;20431;-73
2022/12/05 00:48:20;;;;;;;19.10;13.77;;;5.70;99.90;;;;;;5058140;28;20224;-73
2022/12/05 00:50:46;;;;;;;22.23;14.90;;;5.70;99.90;;;;;;5073711;28;20213;-74
2022/12/05 00:53:11;;;;;;;19.23;13.23;;;5.60;99.90;;;;;;5056069;28;20688;-73
2022/12/05 00:55:43;;;;;;;20.40;13.77;;;5.70;99.90;;;;;;5059691;28;20533;-73
2022/12/05 00:58:08;;;;;;;19.93;13.67;;;5.70;99.90;;;;;;5057812;28;20179;-73
2022/12/05 01:00:34;;;;;;;18.63;13.33;;;5.60;99.90;;;;;;5055758;28;20466;-73
2022/12/05 01:02:59;;;;;;;17.70;11.83;;;5.60;99.90;;;;;;5055145;28;20282;-74
2022/12/05 01:05:25;;;;;;;22.23;15.20;;;5.70;99.90;;;;;;5055510;28;20159;-73
2022/12/05 01:07:50;;;;;;;21.83;15.00;;;5.50;99.90;;;;;;5055619;28;20169;-74
2022/12/05 01:10:16;;;;;;;23.30;13.83;;;5.60;99.90;;;;;;5054227;28;20175;-74
2022/12/05 01:12:42;;;;;;;20.30;13.03;;;5.70;99.90;;;;;;5055873;28;20177;-74
2022/12/05 01:15:08;;;;;;;19.87;12.70;;;5.80;99.90;;;;;;5055444;28;20189;-73
2022/12/05 01:17:34;;;;;;;19.87;13.47;;;5.80;99.90;;;;;;5057715;28;20214;-73
2022/12/05 01:20:00;;;;;;;18.97;14.60;;;5.80;99.90;;;;;;5055575;28;20470;-74
2022/12/05 01:22:25;;;;;;;21.80;13.97;;;5.90;99.90;;;;;;5055337;28;20497;-74
2022/12/05 01:24:51;;;;;;;21.30;14.03;;;6.00;99.90;;;;;;5050856;28;20167;-73
2022/12/05 01:27:16;;;;;;;18.37;12.80;;;5.80;99.90;;;;;;5054990;28;20267;-73
2022/12/05 01:29:42;;;;;;;20.37;14.93;;;5.60;99.90;;;;;;5055244;28;20193;-74
2022/12/05 01:32:08;;;;;;;19.33;13.83;;;5.70;99.90;;;;;;5055179;28;20194;-74
2022/12/05 01:34:33;;;;;;;17.67;13.50;;;5.70;99.90;;;;;;5055039;28;20641;-74
2022/12/05 01:36:59;;;;;;;21.17;14.17;;;5.60;99.90;;;;;;5036918;28;20194;-74
2022/12/05 01:39:24;;;;;;;20.03;13.47;;;5.70;99.90;;;;;;5054493;28;20209;-74
2022/12/05 01:41:50;;;;;;;17.40;12.83;;;5.70;99.90;;;;;;5055092;28;20176;-74
2022/12/05 01:44:16;;;;;;;21.43;13.90;;;5.60;99.90;;;;;;5055021;28;20225;-74
2022/12/05 01:46:49;;;;;;;18.97;13.17;;;5.70;99.90;;;;;;5054813;28;20592;-74
2022/12/05 01:49:20;;;;;;;17.60;12.13;;;5.60;99.90;;;;;;5036900;28;20257;-74
2022/12/05 01:51:48;;;;;;;22.03;14.60;;;5.50;99.90;;;;;;5055055;28;20447;-74
2022/12/05 01:54:17;;;;;;;19.80;13.40;;;5.50;99.90;;;;;;5035985;28;20432;-74
2022/12/05 01:56:47;;;;;;;20.80;12.90;;;5.60;99.90;;;;;;5054713;28;20486;-74
2022/12/05 01:59:13;;;;;;;18.33;13.30;;;5.40;99.90;;;;;;5055055;28;20409;-74
2022/12/05 02:01:40;;;;;;;19.90;12.27;;;5.40;99.90;;;;;;5054479;28;20405;-74
2022/12/05 02:04:06;;;;;;;15.70;12.20;;;5.30;99.90;;;;;;5054252;28;20452;-74
2022/12/05 02:06:32;;;;;;;18.03;12.07;;;5.40;99.90;;;;;;5054372;28;20420;-73
2022/12/05 02:08:58;;;;;;;16.30;11.80;;;5.40;99.90;;;;;;5053997;28;20405;-73
2022/12/05 02:11:27;;;;;;;15.87;12.60;;;5.40;99.90;;;;;;5053393;28;20949;-74
2022/12/05 02:13:53;;;;;;;18.80;12.83;;;5.30;99.90;;;;;;5054683;28;20167;-73
2022/12/05 02:16:39;;;;;;;15.80;12.60;;;5.10;99.90;;;;;;5036512;28;20519;-74
2022/12/05 02:19:29;;;;;;;18.63;12.70;;;5.10;99.90;;;;;;5054068;28;20167;-74
2022/12/05 02:22:10;;;;;;;20.60;12.37;;;5.00;99.90;;;;;;5054369;28;20469;-74
2022/12/05 02:25:13;;;;;;;16.30;11.80;;;5.00;99.90;;;;;;5053533;28;20452;-74
2022/12/05 02:27:55;;;;;;;19.77;13.80;;;4.80;99.90;;;;;;5053789;28;20428;-74
2022/12/05 02:30:23;;;;;;;17.33;11.93;;;4.90;99.90;;;;;;5054044;28;20374;-73
2022/12/05 02:33:09;;;;;;;20.07;12.83;;;4.90;99.90;;;;;;5054148;28;20429;-74
2022/12/05 02:35:49;;;;;;;17.53;12.60;;;5.00;99.90;;;;;;5054007;28;20428;-74
2022/12/05 02:38:59;;;;;;;18.87;13.60;;;4.90;99.90;;;;;;5054232;28;20476;-74
2022/12/05 02:41:36;;;;;;;22.20;13.13;;;5.00;99.90;;;;;;5053431;28;20397;-74
2022/12/05 02:44:11;;;;;;;17.70;12.43;;;5.00;99.90;;;;;;5052948;28;20835;-74
2022/12/05 02:46:39;;;;;;;20.20;12.90;;;5.10;99.90;;;;;;5054188;28;20439;-74
2022/12/05 02:49:09;;;;;;;19.37;12.13;;;4.90;99.90;;;;;;5053834;28;20456;-74
2022/12/05 02:51:42;;;;;;;20.03;13.10;;;4.90;99.90;;;;;;5053371;28;20415;-74
2022/12/05 02:54:11;;;;;;;21.00;13.80;;;4.90;99.90;;;;;;5052477;28;20479;-74
2022/12/05 02:56:38;;;;;;;23.20;14.07;;;4.90;99.90;;;;;;5035533;28;20490;-74
2022/12/05 02:59:03;;;;;;;21.20;13.23;;;4.80;99.90;;;;;;5053130;28;20408;-74
2022/12/05 03:01:31;;;;;;;23.47;15.27;;;4.80;99.90;;;;;;5053247;28;20417;-74
2022/12/05 03:03:59;;;;;;;21.37;13.47;;;5.00;99.90;;;;;;5034936;28;20194;-74
2022/12/05 03:06:32;;;;;;;20.50;13.23;;;5.00;99.90;;;;;;5053855;28;20465;-74
2022/12/05 03:09:06;;;;;;;21.13;13.37;;;5.10;99.90;;;;;;5055985;28;20398;-74
2022/12/05 03:11:55;;;;;;;22.77;14.10;;;5.20;99.90;;;;;;5052432;28;20584;-74
2022/12/05 03:14:26;;;;;;;18.83;12.37;;;5.40;99.90;;;;;;5053435;28;20463;-75
2022/12/05 03:16:57;;;;;;;19.93;13.67;;;5.40;99.90;;;;;;5053157;28;20475;-74
2022/12/05 03:19:31;;;;;;;22.97;14.67;;;5.40;99.90;;;;;;5053183;28;20875;-74
2022/12/05 03:22:05;;;;;;;18.97;12.10;;;5.60;99.90;;;;;;5053106;28;20394;-74
2022/12/05 03:24:35;;;;;;;22.00;13.90;;;5.50;99.90;;;;;;5052703;28;20436;-74
2022/12/05 03:27:13;;;;;;;19.50;12.80;;;5.60;99.90;;;;;;5052219;28;20954;-74
2022/12/05 03:29:39;;;;;;;20.70;13.17;;;5.70;99.90;;;;;;5049821;28;20413;-74
2022/12/05 03:32:45;;;;;;;24.17;15.90;;;5.50;99.90;;;;;;5052844;28;20401;-74
2022/12/05 03:35:34;;;;;;;22.50;14.17;;;5.60;99.90;;;;;;4972046;28;20174;-74
2022/12/05 03:38:14;;;;;;;20.53;13.73;;;5.70;99.90;;;;;;5049705;28;20474;-73
2022/12/05 03:40:51;;;;;;;20.17;13.57;;;5.60;99.90;;;;;;5034345;28;20423;-74
2022/12/05 03:43:42;;;;;;;23.37;14.60;;;5.60;99.90;;;;;;5035254;28;20454;-74
2022/12/05 03:46:22;;;;;;;20.57;13.07;;;5.70;99.90;;;;;;5053236;28;20433;-74
2022/12/05 03:49:13;;;;;;;19.33;13.20;;;5.90;99.90;;;;;;5052891;28;20446;-74
2022/12/05 03:51:49;;;;;;;19.03;13.13;;;6.00;99.90;;;;;;5031984;28;20413;-74
2022/12/05 03:54:31;;;;;;;24.80;14.30;;;6.00;99.90;;;;;;5053179;28;20476;-75
2022/12/05 03:57:08;;;;;;;21.57;14.43;;;6.10;99.90;;;;;;5052318;28;20472;-74
2022/12/05 03:59:45;;;;;;;20.87;13.63;;;6.10;99.90;;;;;;5052608;28;20404;-74
2022/12/05 04:02:20;;;;;;;17.30;11.67;;;6.10;99.90;;;;;;5052552;28;20443;-74
2022/12/05 04:04:56;;;;;;;19.73;13.00;;;6.10;99.90;;;;;;5054321;28;20476;-75
2022/12/05 04:07:23;;;;;;;19.57;12.63;;;6.20;99.90;;;;;;5038746;28;20851;-74
2022/12/05 04:09:58;;;;;;;16.90;10.93;;;6.30;99.90;;;;;;5056381;28;20404;-74
2022/12/05 04:12:29;;;;;;;17.23;12.23;;;6.30;99.90;;;;;;5056487;28;20939;-74
2022/12/05 04:14:59;;;;;;;18.40;13.53;;;6.40;99.90;;;;;;5055274;28;20418;-75
2022/12/05 04:17:45;;;;;;;15.33;11.60;;;6.40;99.90;;;;;;5056333;28;20422;-75
2022/12/05 04:23:07;;;;;;;20.40;14.20;;;6.30;99.90;;;;;;5056561;28;20978;-72
2022/12/05 04:25:49;;;;;;;19.57;13.10;;;6.30;99.90;;;;;;5056089;28;20931;-75
2022/12/05 04:28:33;;;;;;;17.70;12.93;;;6.20;99.90;;;;;;5055950;28;20445;-74
2022/12/05 04:31:20;;;;;;;22.37;15.50;;;6.20;99.90;;;;;;5055075;28;20895;-75
2022/12/05 04:34:01;;;;;;;20.53;14.07;;;6.10;99.90;;;;;;5056256;28;20392;-76
2022/12/05 04:36:26;;;;;;;17.10;11.90;;;6.10;99.90;;;;;;5056341;28;20793;-74
2022/12/05 04:39:16;;;;;;;17.10;13.27;;;6.20;99.90;;;;;;5055993;28;20407;-73
2022/12/05 04:41:48;;;;;;;19.80;12.93;;;6.10;99.90;;;;;;5056071;28;20248;-74
2022/12/05 04:44:18;;;;;;;17.00;11.80;;;6.10;99.90;;;;;;5056201;28;20551;-75
2022/12/05 04:46:46;;;;;;;19.30;13.70;;;6.10;99.90;;;;;;5055753;28;20786;-73
2022/12/05 04:49:18;;;;;;;20.70;13.47;;;5.90;99.90;;;;;;5055826;28;20410;-73
2022/12/05 04:51:45;;;;;;;20.83;13.83;;;5.90;99.90;;;;;;5056027;28;20393;-74
2022/12/05 04:54:20;;;;;;;17.53;12.70;;;5.90;99.90;;;;;;5054995;28;20451;-74
2022/12/05 04:56:50;;;;;;;19.33;13.10;;;5.80;99.90;;;;;;5055849;28;20491;-74
2022/12/05 04:59:15;;;;;;;19.80;13.50;;;5.90;99.90;;;;;;5055616;28;20493;-73
2022/12/05 05:01:48;;;;;;;17.20;12.40;;;5.90;99.90;;;;;;5055235;28;20501;-74
2022/12/05 05:04:23;;;;;;;21.70;14.07;;;5.90;99.90;;;;;;5037531;28;20198;-73
2022/12/05 05:06:49;;;;;;;21.27;13.20;;;5.80;99.90;;;;;;5055461;28;20417;-74
2022/12/05 05:09:15;;;;;;;20.10;12.60;;;5.80;99.90;;;;;;5055156;28;20451;-74
2022/12/05 05:11:40;;;;;;;17.87;13.03;;;5.70;99.90;;;;;;5057737;28;20163;-74
2022/12/05 05:14:06;;;;;;;24.27;12.90;;;5.70;99.90;;;;;;5054828;28;20175;-74
2022/12/05 05:16:39;;;;;;;21.57;14.10;;;5.70;99.90;;;;;;5036429;28;20194;-74
2022/12/05 05:19:06;;;;;;;24.97;14.20;;;5.70;99.90;;;;;;5055393;28;20238;-74
2022/12/05 05:21:34;;;;;;;21.97;15.50;;;5.70;99.90;;;;;;5055435;28;20404;-74
2022/12/05 05:24:00;;;;;;;20.33;12.83;;;5.80;99.90;;;;;;5037026;28;20448;-74
2022/12/05 05:26:27;;;;;;;17.60;12.47;;;5.80;99.90;;;;;;5056286;28;20448;-76
2022/12/05 05:28:53;;;;;;;22.00;14.17;;;5.80;99.90;;;;;;5055067;28;20406;-75
2022/12/05 05:31:20;;;;;;;23.27;14.77;;;5.80;99.90;;;;;;5054338;28;20402;-75
2022/12/05 05:33:48;;;;;;;21.40;14.07;;;5.70;99.90;;;;;;5033808;28;20709;-75
2022/12/05 05:36:14;;;;;;;19.63;12.47;;;5.60;99.90;;;;;;5055456;28;20439;-74
2022/12/05 05:38:42;;;;;;;20.43;14.60;;;5.60;99.90;;;;;;5055307;28;20417;-75
2022/12/05 05:41:37;;;;;;;22.83;14.87;;;5.70;99.90;;;;;;5055117;28;20175;-75
2022/12/05 05:44:04;;;;;;;18.70;12.33;;;5.90;99.90;;;;;;5037504;28;20822;-74
2022/12/05 05:46:32;;;;;;;18.90;12.47;;;5.90;99.90;;;;;;5054192;28;20429;-75
2022/12/05 05:48:58;;;;;;;21.90;14.23;;;5.90;99.90;;;;;;5055078;28;20431;-74
2022/12/05 05:51:28;;;;;;;19.73;13.30;;;5.90;99.90;;;;;;5054700;28;20771;-74
2022/12/05 05:53:55;;;;;;;19.60;13.90;;;5.90;99.90;;;;;;5054870;28;20389;-74
2022/12/05 05:56:21;;;;;;;20.57;14.07;;;6.00;99.90;;;;;;5054746;28;20429;-74
2022/12/05 05:58:47;;;;;;;24.00;14.20;;;5.90;99.90;;;;;;5055067;28;20405;-74
2022/12/05 06:01:16;;;;;;;20.60;12.77;;;5.90;99.90;;;;;;5053850;28;20964;-74
2022/12/05 06:03:42;;;;;;;21.50;15.40;;;5.80;99.90;;;;;;5036863;28;20450;-73
2022/12/05 06:06:12;;;;;;;20.60;13.90;;;5.90;99.90;;;;;;5055981;28;20428;-73
2022/12/05 06:08:39;;;;;;;18.80;13.00;;;5.80;99.90;;;;;;5054623;28;20739;-73
2022/12/05 06:11:10;;;;;;;17.63;11.53;;;5.90;99.90;;;;;;5036142;28;20409;-74
2022/12/05 06:13:37;;;;;;;17.57;12.00;;;5.90;99.90;;;;;;5054128;28;20519;-74
2022/12/05 06:16:05;;;;;;;20.23;13.40;;;5.90;99.90;;;;;;5036061;28;20437;-74
2022/12/05 06:18:30;;;;;;;18.20;12.80;;;6.00;99.90;;;;;;5053709;28;20413;-75
2022/12/05 06:20:57;;;;;;;15.80;12.20;;;6.00;99.90;;;;;;5054193;28;20410;-74
2022/12/05 06:23:23;;;;;;;17.13;12.10;;;6.10;99.90;;;;;;5054176;28;20223;-74
2022/12/05 06:25:51;;;;;;;19.10;13.70;;;6.10;99.90;;;;;;5084058;22;20583;-70
2022/12/05 06:28:17;;;;;;;20.17;13.63;;;6.00;99.90;;;;;;5051887;28;20430;-71
2022/12/05 06:30:43;;;;;;;21.47;14.80;;;6.00;99.90;;;;;;5054877;28;20412;-70
2022/12/05 06:33:09;;;;;;;17.17;13.53;;;5.90;99.90;;;;;;5056017;28;20451;-70
2022/12/05 06:35:35;;;;;;;23.23;15.30;;;5.90;99.90;;;;;;5058357;28;20398;-71
2022/12/05 06:38:00;;;;;;;19.00;12.70;;;5.90;99.90;;;;;;5042359;28;20186;-70
2022/12/05 06:40:26;;;;;;;21.77;14.10;;;5.90;99.90;;;;;;5060542;28;20163;-73
2022/12/05 06:42:52;;;;;;;20.17;14.53;;;5.90;99.90;;;;;;5062350;28;20202;-72
2022/12/05 06:45:17;;;;;;;16.00;12.67;;;5.90;99.90;;;;;;5039112;28;20183;-71
2022/12/05 06:47:43;;;;;;;20.97;13.30;;;5.80;99.90;;;;;;5040751;28;20211;-74
2022/12/05 06:50:09;;;;;;;22.27;15.30;;;5.80;99.90;;;;;;5030298;28;20171;-73
2022/12/05 06:52:34;;;;;;;19.47;14.80;;;5.80;99.90;;;;;;5061187;28;20175;-73
2022/12/05 06:55:00;;;;;;;17.70;13.40;;;5.90;99.90;;;;;;5064375;28;20575;-73
2022/12/05 06:57:27;;;;;;;18.20;12.63;;;6.10;99.90;;;;;;5044865;28;20191;-74
2022/12/05 07:01:37;;;;;;;15.90;11.70;;;6.10;99.90;;;;;;5062537;28;20180;-73
2022/12/05 07:02:40;;;;;;;17.23;12.07;;;6.20;99.90;;;;;;5063767;28;20512;-72
2022/12/05 07:05:09;;;;;;;15.60;12.23;;;6.30;99.90;;;;;;5064747;28;20477;-73
2022/12/05 07:07:35;;;;;;;17.57;13.23;;;6.40;99.90;;;;;;5063986;28;20514;-73
2022/12/05 07:10:01;;;;;;;17.17;12.53;;;6.50;99.90;;;;;;5054972;28;20434;-73
2022/12/05 07:12:26;;;;;;;14.57;11.60;;;6.60;99.90;;;;;;5055176;28;20621;-73
2022/12/05 07:14:52;;;;;;;14.30;12.10;;;6.50;99.90;;;;;;5053884;28;20690;-73
2022/12/05 07:17:18;;;;;;;18.00;12.13;;;6.60;99.90;;;;;;5033160;28;20199;-73
2022/12/05 07:19:47;;;;;;;16.47;11.67;;;6.70;99.90;;;;;;5039289;28;20161;-72
2022/12/05 07:22:13;;;;;;;15.30;11.40;;;6.60;99.90;;;;;;5033264;28;20403;-73
2022/12/05 07:24:38;;;;;;;16.23;11.50;;;6.50;99.90;;;;;;5033122;28;20449;-72
2022/12/05 07:27:05;;;;;;;16.80;12.40;;;6.60;99.90;;;;;;5015445;28;20196;-73
2022/12/05 07:29:30;;;;;;;17.73;12.63;;;6.60;99.90;;;;;;5033790;28;20160;-73
2022/12/05 07:31:56;;;;;;;14.10;11.20;;;6.60;99.90;;;;;;5033375;28;20404;-74
2022/12/05 07:34:21;;;;;;;17.97;13.57;;;6.50;99.90;;;;;;5033086;28;20201;-72
2022/12/05 07:36:47;;;;;;;16.83;12.20;;;6.60;99.90;;;;;;5033056;28;20207;-72
2022/12/05 07:39:13;;;;;;;16.77;12.03;;;6.50;99.90;;;;;;5041653;28;20269;-72
2022/12/05 07:41:38;;;;;;;16.43;11.40;;;6.40;99.90;;;;;;5029815;28;20179;-73
2022/12/05 07:44:04;;;;;;;13.83;10.77;;;6.60;99.90;;;;;;5032982;28;20245;-72
2022/12/05 07:46:30;;;;;;;14.10;10.50;;;6.70;99.90;;;;;;5034087;28;20207;-74
2022/12/05 07:48:55;;;;;;;17.53;11.60;;;6.80;99.90;;;;;;5033257;28;20169;-72
2022/12/05 07:51:21;;;;;;;12.10;10.23;;;6.60;99.90;;;;;;5034048;28;20177;-73
2022/12/05 07:53:47;;;;;;;15.13;11.93;;;6.80;99.90;;;;;;5034070;28;20548;-72
2022/12/05 07:56:15;;;;;;;13.57;11.70;;;6.90;99.90;;;;;;5033334;28;20460;-72
2022/12/05 07:58:42;;;;;;;12.87;11.00;;;7.10;99.90;;;;;;5016875;28;20429;-72
2022/12/05 08:01:23;;;;;;;12.00;9.90;;;7.30;99.90;;;;;;5016979;28;20435;-72
2022/12/05 08:03:51;;;;;;;11.93;10.63;;;7.40;99.90;;;;;;5033044;28;20453;-73
2022/12/05 08:06:20;;;;;;;12.40;9.50;;;7.50;99.90;;;;;;5032897;28;20427;-72
2022/12/05 08:08:50;;;;;;;12.13;9.90;;;7.40;99.90;;;;;;5032855;28;20484;-71
2022/12/05 08:11:20;;;;;;;14.70;11.37;;;7.30;99.90;;;;;;5049723;28;20853;-72
2022/12/05 08:13:46;;;;;;;13.13;10.13;;;7.40;99.90;;;;;;5053118;28;20431;-74
2022/12/05 08:16:14;;;;;;;12.67;10.10;;;7.50;99.90;;;;;;5052926;28;20431;-75
2022/12/05 08:18:40;;;;;;;13.20;9.53;;;7.60;99.90;;;;;;5051919;28;20431;-75
2022/12/05 08:21:09;;;;;;;14.83;10.07;;;7.40;99.90;;;;;;5052337;28;20454;-72
2022/12/05 08:23:35;;;;;;;15.93;9.90;;;7.50;99.90;;;;;;5052694;28;20442;-73
2022/12/05 08:26:09;;;;;;;11.27;9.33;;;7.30;99.90;;;;;;5052351;28;20580;-73
2022/12/05 08:28:36;;;;;;;10.07;8.40;;;7.20;99.90;;;;;;5052615;28;20759;-74
2022/12/05 08:31:04;;;;;;;13.23;8.83;;;7.40;99.90;;;;;;5052759;28;21016;-73
2022/12/05 08:33:29;;;;;;;11.93;9.03;;;7.50;99.90;;;;;;5052596;28;20893;-73
2022/12/05 08:35:55;;;;;;;11.37;9.57;;;7.60;99.90;;;;;;5050851;28;20423;-73
2022/12/05 08:38:20;;;;;;;11.77;9.30;;;7.60;99.90;;;;;;5052727;28;20174;-73
2022/12/05 08:40:46;;;;;;;12.70;9.33;;;7.60;99.90;;;;;;5052731;28;20252;-73
2022/12/05 08:43:12;;;;;;;16.00;10.30;;;7.60;99.90;;;;;;5052825;28;20763;-73
2022/12/05 08:45:38;;;;;;;17.63;10.93;;;7.50;99.90;;;;;;5052799;28;20168;-73
2022/12/05 08:48:04;;;;;;;14.17;10.80;;;7.50;99.90;;;;;;5035019;28;20427;-73
2022/12/05 08:50:29;;;;;;;11.37;9.37;;;7.50;99.90;;;;;;5053403;28;20667;-73
2022/12/05 08:52:55;;;;;;;13.87;9.70;;;7.50;99.90;;;;;;5056776;28;20178;-72
2022/12/05 08:55:20;;;;;;;11.90;8.90;;;7.40;99.90;;;;;;5055913;28;20179;-74
2022/12/05 08:57:46;;;;;;;13.17;9.50;;;7.50;99.90;;;;;;5056095;28;20604;-73
2022/12/05 09:00:12;;;;;;;9.33;7.60;;;7.60;99.90;;;;;;5055402;28;20611;-74
2022/12/05 09:02:37;;;;;;;10.53;9.07;;;7.60;99.90;;;;;;5055959;28;20177;-72
2022/12/05 09:05:03;;;;;;;12.10;9.47;;;7.80;99.90;;;;;;5055559;28;20898;-73
2022/12/05 09:07:29;;;;;;;12.97;9.77;;;7.80;99.90;;;;;;5054744;28;20270;-75
2022/12/05 09:09:54;;;;;;;12.67;10.07;;;7.70;99.90;;;;;;5037412;28;20227;-74
2022/12/05 09:12:20;;;;;;;15.53;10.20;;;7.60;99.90;;;;;;5055921;28;20166;-74
2022/12/05 09:14:45;;;;;;;13.53;10.40;;;7.70;99.90;;;;;;5055600;28;20176;-73
2022/12/05 09:17:11;;;;;;;11.07;9.07;;;7.70;99.90;;;;;;5055161;28;20196;-75
2022/12/05 09:19:36;;;;;;;13.60;10.27;;;7.70;99.90;;;;;;5056212;28;20167;-73
2022/12/05 09:22:04;;;;;;;13.03;9.80;;;7.90;99.90;;;;;;5053743;28;20178;-74
2022/12/05 09:24:29;;;;;;;11.00;9.60;;;8.10;99.90;;;;;;5055616;28;20194;-73
2022/12/05 09:26:55;;;;;;;11.60;9.53;;;8.10;99.90;;;;;;5055349;28;20543;-74
2022/12/05 09:29:20;;;;;;;11.83;9.50;;;8.20;99.90;;;;;;5037759;28;20170;-74
2022/12/05 09:31:48;;;;;;;10.40;8.73;;;8.20;99.90;;;;;;5055570;28;20160;-73
2022/12/05 09:34:16;;;;;;;11.40;9.17;;;8.30;99.90;;;;;;5037257;28;20644;-73
2022/12/05 09:36:42;;;;;;;10.83;9.20;;;8.30;99.90;;;;;;5043483;28;20445;-73
2022/12/05 09:39:09;;;;;;;10.33;9.27;;;8.20;99.90;;;;;;5035770;28;20699;-74
2022/12/05 09:44:51;;;;;;;10.70;7.83;;;8.30;99.90;;;;;;5035049;28;20535;-73
2022/12/05 09:47:23;;;;;;;10.70;8.70;;;8.40;99.90;;;;;;5017994;28;20437;-74
2022/12/05 09:50:20;;;;;;;10.17;8.37;;;8.50;99.90;;;;;;5035130;28;20861;-74
2022/12/05 09:53:08;;;;;;;10.30;8.03;;;8.60;99.90;;;;;;5034926;28;20895;-74
2022/12/05 09:55:55;;;;;;;8.70;7.80;;;8.70;99.90;;;;;;5035022;28;20409;-74
2022/12/05 09:58:39;;;;;;;9.83;8.23;;;8.60;99.90;;;;;;5039435;28;20426;-75
2022/12/05 10:01:29;;;;;;;8.90;8.00;;;8.40;99.90;;;;;;5055170;28;20394;-73
2022/12/05 10:04:03;;;;;;;8.83;6.93;;;8.50;99.90;;;;;;5055396;28;20441;-74
2022/12/05 10:06:39;;;;;;;10.00;7.63;;;8.60;99.90;;;;;;5037699;28;20425;-74
2022/12/05 10:09:27;;;;;;;7.50;6.80;;;8.70;99.90;;;;;;5055078;28;20396;-73
2022/12/05 10:12:18;;;;;;;7.73;6.87;;;8.80;99.90;;;;;;5043800;28;20455;-72
2022/12/05 10:14:54;;;;;;;8.97;7.20;;;8.40;99.90;;;;;;5054817;28;20434;-72
2022/12/05 10:17:27;;;;;;;7.77;7.07;;;8.30;99.90;;;;;;5037775;28;20440;-74
2022/12/05 10:19:56;;;;;;;8.50;7.10;;;8.40;99.90;;;;;;5036715;28;20439;-72
2022/12/05 10:22:29;;;;;;;9.80;7.40;;;8.40;99.90;;;;;;5054844;28;20404;-73
2022/12/05 10:25:00;;;;;;;7.63;6.73;;;8.60;99.90;;;;;;5054427;28;20415;-72
2022/12/05 10:27:48;;;;;;;12.30;7.67;;;8.60;99.90;;;;;;5053949;28;20814;-73
2022/12/05 10:30:20;;;;;;;8.50;6.67;;;8.40;99.90;;;;;;5054611;28;20383;-72
2022/12/05 10:32:56;;;;;;;10.03;6.10;;;8.40;99.90;;;;;;5054464;28;20387;-72
2022/12/05 10:35:25;;;;;;;6.97;6.27;;;8.40;99.90;;;;;;5048391;28;20928;-71
2022/12/05 10:38:01;;;;;;;7.73;6.60;;;8.60;99.90;;;;;;5034365;28;20502;-74
2022/12/05 10:40:34;;;;;;;8.27;7.43;;;8.50;99.90;;;;;;5034501;28;21368;-71
2022/12/05 10:43:00;;;;;;;6.83;6.23;;;8.70;99.90;;;;;;5035386;28;20447;-73
2022/12/05 10:45:26;;;;;;;8.73;6.67;;;9.00;99.90;;;;;;5034252;28;20410;-74
2022/12/05 10:47:54;;;;;;;8.53;6.00;;;9.30;99.90;;;;;;5034881;28;20198;-74
2022/12/05 10:50:41;;;;;;;8.60;6.60;;;9.50;99.90;;;;;;5034985;28;20257;-72
2022/12/05 10:53:07;;;;;;;7.00;5.90;;;9.60;99.90;;;;;;5017138;28;20424;-73
2022/12/05 10:55:42;;;;;;;9.33;6.23;;;9.60;99.90;;;;;;5035519;28;20444;-74
2022/12/05 10:58:25;;;;;;;6.57;5.87;;;9.60;99.90;;;;;;5036189;28;20412;-73
2022/12/05 11:00:54;;;;;;;5.60;5.10;;;9.70;99.90;;;;;;5018015;28;20694;-73
2022/12/05 11:03:32;;;;;;;5.73;4.70;;;9.50;99.90;;;;;;5033733;28;20481;-73
2022/12/05 11:06:00;;;;;;;6.60;5.90;;;9.40;99.90;;;;;;5033776;28;20436;-74
2022/12/05 11:08:31;;;;;;;6.07;5.47;;;9.60;99.90;;;;;;5034262;28;20803;-73
2022/12/05 11:11:06;;;;;;;6.90;5.53;;;9.50;99.90;;;;;;5033517;28;20454;-74
2022/12/05 11:13:33;;;;;;;6.00;5.40;;;9.60;99.90;;;;;;5033637;28;20415;-73
2022/12/05 11:15:59;;;;;;;5.33;4.83;;;9.60;99.90;;;;;;5024873;28;20450;-74
2022/12/05 11:18:27;;;;;;;6.23;5.63;;;9.60;99.90;;;;;;5016679;28;20433;-74
2022/12/05 11:20:53;;;;;;;6.00;5.43;;;9.80;99.90;;;;;;5034044;28;20169;-73
2022/12/05 11:23:27;;;;;;;6.43;5.37;;;10.00;99.90;;;;;;5033557;28;20898;-73
2022/12/05 11:25:54;;;;;;;6.80;5.27;;;9.90;99.90;;;;;;5033361;28;20182;-74
2022/12/05 11:28:20;;;;;;;4.70;4.30;;;9.80;99.90;;;;;;5042154;28;20418;-72
2022/12/05 11:31:00;;;;;;;5.30;4.77;;;9.60;99.90;;;;;;5050822;28;20741;-73
2022/12/05 11:33:28;;;;;;;4.93;4.43;;;9.80;99.90;;;;;;5052432;28;20162;-74
2022/12/05 11:35:57;;;;;;;5.43;4.93;;;10.20;99.90;;;;;;5053141;28;20419;-73
2022/12/05 11:38:31;;;;;;;5.00;4.50;;;10.20;99.90;;;;;;5053109;28;20415;-73
2022/12/05 11:41:21;;;;;;;5.77;4.30;;;9.80;99.90;;;;;;5053344;28;20447;-73
2022/12/05 11:43:59;;;;;;;4.33;3.93;;;10.10;99.90;;;;;;5052608;28;20813;-73
2022/12/05 11:46:44;;;;;;;6.60;4.13;;;10.20;99.90;;;;;;5052862;28;20421;-74
2022/12/05 11:49:28;;;;;;;4.37;3.97;;;11.00;99.90;;;;;;5041656;28;20434;-74
2022/12/05 11:52:08;;;;;;;3.83;3.40;;;11.50;99.90;;;;;;5033768;28;20388;-74
2022/12/05 11:55:15;;;;;;;4.33;3.93;;;11.70;99.90;;;;;;5033389;28;20430;-73
2022/12/05 11:58:05;;;;;;;4.20;3.80;;;11.70;99.90;;;;;;4972345;28;20440;-71
2022/12/05 12:00:36;;;;;;;4.67;4.07;;;11.20;99.90;;;;;;5048285;28;21040;-73
2022/12/05 12:03:14;;;;;;;4.77;4.00;;;11.60;99.90;;;;;;5053011;28;20540;-73
2022/12/05 12:06:16;;;;;;;5.03;3.97;;;11.70;99.90;;;;;;5053323;28;20384;-73
2022/12/05 12:09:10;;;;;;;3.47;3.17;;;12.20;99.90;;;;;;5035325;28;20419;-73
2022/12/05 12:11:57;;;;;;;3.53;3.23;;;11.80;99.90;;;;;;5053199;28;20442;-73
2022/12/05 12:14:25;;;;;;;3.27;2.93;;;11.50;99.90;;;;;;5034897;28;20458;-74
2022/12/05 12:17:15;;;;;;;3.43;3.13;;;11.60;99.90;;;;;;5032722;28;20470;-75
2022/12/05 12:19:59;;;;;;;3.73;3.43;;;11.60;99.90;;;;;;5033181;28;20406;-73
2022/12/05 12:22:36;;;;;;;3.30;3.00;;;11.20;99.90;;;;;;5033534;28;20476;-73
2022/12/05 12:25:20;;;;;;;4.87;4.00;;;11.10;99.90;;;;;;5036547;28;20417;-74
2022/12/05 12:27:45;;;;;;;4.13;3.70;;;10.70;99.90;;;;;;5066268;22;20956;-75
2022/12/05 12:30:15;;;;;;;3.93;3.30;;;10.50;99.90;;;;;;5057318;28;20488;-75
2022/12/05 12:32:49;;;;;;;4.97;4.00;;;10.50;99.90;;;;;;5057081;28;20173;-74
2022/12/05 12:35:41;;;;;;;5.40;4.30;;;10.20;99.90;;;;;;5056575;28;20424;-75
2022/12/05 12:38:45;;;;;;;5.37;3.67;;;10.30;99.90;;;;;;5056242;28;20453;-75
2022/12/05 12:41:29;;;;;;;4.50;4.10;;;10.40;99.90;;;;;;5056879;28;20453;-74
2022/12/05 12:44:24;;;;;;;8.30;3.60;;;10.40;99.90;;;;;;5056578;28;20521;-75
2022/12/05 12:46:55;;;;;;;4.30;3.50;;;10.30;99.90;;;;;;5051638;28;20445;-74
2022/12/05 12:49:37;;;;;;;9.13;4.83;;;9.90;99.90;;;;;;5057393;28;20388;-74
2022/12/05 12:52:13;;;;;;;5.20;4.23;;;9.90;99.90;;;;;;5058578;28;20385;-76
2022/12/05 12:55:20;;;;;;;4.50;3.70;;;10.00;99.90;;;;;;5057973;28;20736;-75
2022/12/05 12:57:54;;;;;;;6.93;5.50;;;9.80;99.90;;;;;;4983541;28;20511;-74
2022/12/05 13:00:44;;;;;;;4.87;4.37;;;10.20;99.90;;;;;;5029020;28;20419;-74
2022/12/05 13:03:25;;;;;;;4.87;4.37;;;10.40;99.90;;;;;;5039212;28;20470;-74
2022/12/05 13:05:57;;;;;;;3.60;3.30;;;10.40;99.90;;;;;;5041990;28;20411;-76
2022/12/05 13:08:26;;;;;;;4.63;4.23;;;10.40;99.90;;;;;;5040662;28;20422;-74
2022/12/05 13:10:52;;;;;;;4.67;3.93;;;10.50;99.90;;;;;;5038008;28;20422;-75